sensor_id;sensor_type;location;lat;lon;timestamp;pressure;altitude;pressure_sealevel;temperature
65738;BMP280;52478;51.844;6.582;2023-06-22T00:01:54;101640.13;;;27.82
65738;BMP280;52478;51.844;6.582;2023-06-22T00:04:21;101641.97;;;27.79
65738;BMP280;52478;51.844;6.582;2023-06-22T00:06:47;101645.34;;;27.78
65738;BMP280;52478;51.844;6.582;2023-06-22T00:09:14;101643.84;;;27.77
65738;BMP280;52478;51.844;6.582;2023-06-22T00:11:40;101641.03;;;27.77
65738;BMP280;52478;51.844;6.582;2023-06-22T00:14:07;101641.75;;;27.77
65738;BMP280;52478;51.844;6.582;2023-06-22T00:16:33;101641.59;;;27.75
65738;BMP280;52478;51.844;6.582;2023-06-22T00:19:01;101631.09;;;27.76
65738;BMP280;52478;51.844;6.582;2023-06-22T00:21:29;101623.19;;;27.74
65738;BMP280;52478;51.844;6.582;2023-06-22T00:23:56;101628.81;;;27.74
65738;BMP280;52478;51.844;6.582;2023-06-22T00:26:23;101628.28;;;27.76
65738;BMP280;52478;51.844;6.582;2023-06-22T00:28:49;101624.84;;;27.70
65738;BMP280;52478;51.844;6.582;2023-06-22T00:31:16;101625.47;;;27.76
65738;BMP280;52478;51.844;6.582;2023-06-22T00:33:43;101617.56;;;27.74
65738;BMP280;52478;51.844;6.582;2023-06-22T00:36:10;101625.06;;;27.72
65738;BMP280;52478;51.844;6.582;2023-06-22T00:38:38;101627.09;;;27.72
65738;BMP280;52478;51.844;6.582;2023-06-22T00:41:05;101631.22;;;27.71
65738;BMP280;52478;51.844;6.582;2023-06-22T00:43:31;101629.38;;;27.73
65738;BMP280;52478;51.844;6.582;2023-06-22T00:45:58;101627.28;;;27.73
65738;BMP280;52478;51.844;6.582;2023-06-22T00:48:25;101630.09;;;27.73
65738;BMP280;52478;51.844;6.582;2023-06-22T00:50:52;101620.69;;;27.71
65738;BMP280;52478;51.844;6.582;2023-06-22T00:53:20;101614.91;;;27.69
65738;BMP280;52478;51.844;6.582;2023-06-22T00:55:46;101616.41;;;27.70
65738;BMP280;52478;51.844;6.582;2023-06-22T00:58:17;101614.91;;;27.69
65738;BMP280;52478;51.844;6.582;2023-06-22T01:00:47;101602.13;;;27.68
65738;BMP280;52478;51.844;6.582;2023-06-22T01:03:13;101603.47;;;27.67
65738;BMP280;52478;51.844;6.582;2023-06-22T01:05:42;101602.13;;;27.68
65738;BMP280;52478;51.844;6.582;2023-06-22T01:08:20;101606.28;;;27.67
65738;BMP280;52478;51.844;6.582;2023-06-22T01:10:52;101596.50;;;27.68
65738;BMP280;52478;51.844;6.582;2023-06-22T01:13:27;101597.59;;;27.65
65738;BMP280;52478;51.844;6.582;2023-06-22T01:15:57;101597.41;;;27.63
65738;BMP280;52478;51.844;6.582;2023-06-22T01:18:29;101605.09;;;27.63
65738;BMP280;52478;51.844;6.582;2023-06-22T01:20:57;101605.88;;;27.63
65738;BMP280;52478;51.844;6.582;2023-06-22T01:23:32;101605.88;;;27.63
65738;BMP280;52478;51.844;6.582;2023-06-22T01:26:05;101612.03;;;27.62
65738;BMP280;52478;51.844;6.582;2023-06-22T01:28:41;101604.16;;;27.60
65738;BMP280;52478;51.844;6.582;2023-06-22T01:31:10;101597.22;;;27.61
65738;BMP280;52478;51.844;6.582;2023-06-22T01:33:41;101602.09;;;27.61
65738;BMP280;52478;51.844;6.582;2023-06-22T01:36:08;101604.69;;;27.59
65738;BMP280;52478;51.844;6.582;2023-06-22T01:38:36;101596.81;;;27.57
65738;BMP280;52478;51.844;6.582;2023-06-22T01:41:03;101586.31;;;27.58
65738;BMP280;52478;51.844;6.582;2023-06-22T01:43:31;101598.09;;;27.56
65738;BMP280;52478;51.844;6.582;2023-06-22T01:46:01;101603.75;;;27.56
65738;BMP280;52478;51.844;6.582;2023-06-22T01:48:28;101593.78;;;27.55
65738;BMP280;52478;51.844;6.582;2023-06-22T01:50:55;101593.25;;;27.57
65738;BMP280;52478;51.844;6.582;2023-06-22T01:53:22;101593.78;;;27.55
65738;BMP280;52478;51.844;6.582;2023-06-22T01:55:48;101592.84;;;27.53
65738;BMP280;52478;51.844;6.582;2023-06-22T01:58:15;101591.91;;;27.50
65738;BMP280;52478;51.844;6.582;2023-06-22T02:00:53;101589.50;;;27.54
65738;BMP280;52478;51.844;6.582;2023-06-22T02:03:27;101590.75;;;27.53
65738;BMP280;52478;51.844;6.582;2023-06-22T02:05:56;101590.75;;;27.53
65738;BMP280;52478;51.844;6.582;2023-06-22T02:08:27;101587.22;;;27.53
65738;BMP280;52478;51.844;6.582;2023-06-22T02:10:55;101594.34;;;27.54
65738;BMP280;52478;51.844;6.582;2023-06-22T02:13:24;101592.63;;;27.51
65738;BMP280;52478;51.844;6.582;2023-06-22T02:15:51;101587.78;;;27.51
65738;BMP280;52478;51.844;6.582;2023-06-22T02:18:17;101591.13;;;27.50
65738;BMP280;52478;51.844;6.582;2023-06-22T02:20:46;101584.75;;;27.49
65738;BMP280;52478;51.844;6.582;2023-06-22T02:23:13;101580.81;;;27.52
65738;BMP280;52478;51.844;6.582;2023-06-22T02:25:39;101585.50;;;27.50
65738;BMP280;52478;51.844;6.582;2023-06-22T02:28:09;101579.13;;;27.49
65738;BMP280;52478;51.844;6.582;2023-06-22T02:30:35;101577.63;;;27.48
65738;BMP280;52478;51.844;6.582;2023-06-22T02:33:02;101577.63;;;27.48
65738;BMP280;52478;51.844;6.582;2023-06-22T02:35:29;101582.16;;;27.51
65738;BMP280;52478;51.844;6.582;2023-06-22T02:37:58;101578.38;;;27.49
65738;BMP280;52478;51.844;6.582;2023-06-22T02:40:25;101572.00;;;27.48
65738;BMP280;52478;51.844;6.582;2023-06-22T02:42:51;101586.81;;;27.49
65738;BMP280;52478;51.844;6.582;2023-06-22T02:45:18;101580.63;;;27.50
65738;BMP280;52478;51.844;6.582;2023-06-22T02:47:44;101584.00;;;27.49
65738;BMP280;52478;51.844;6.582;2023-06-22T02:50:12;101568.78;;;27.44
65738;BMP280;52478;51.844;6.582;2023-06-22T02:52:39;101566.72;;;27.45
65738;BMP280;52478;51.844;6.582;2023-06-22T02:55:08;101575.94;;;27.45
65738;BMP280;52478;51.844;6.582;2023-06-22T02:57:34;101572.34;;;27.45
65738;BMP280;52478;51.844;6.582;2023-06-22T03:00:03;101571.63;;;27.44
65738;BMP280;52478;51.844;6.582;2023-06-22T03:02:41;101561.63;;;27.43
65738;BMP280;52478;51.844;6.582;2023-06-22T03:05:08;101563.19;;;27.44
65738;BMP280;52478;51.844;6.582;2023-06-22T03:07:38;101559.38;;;27.42
65738;BMP280;52478;51.844;6.582;2023-06-22T03:10:07;101562.19;;;27.42
65738;BMP280;52478;51.844;6.582;2023-06-22T03:12:34;101566.88;;;27.39
65738;BMP280;52478;51.844;6.582;2023-06-22T03:15:01;101562.56;;;27.38
65738;BMP280;52478;51.844;6.582;2023-06-22T03:17:27;101557.69;;;27.39
65738;BMP280;52478;51.844;6.582;2023-06-22T03:19:53;101552.06;;;27.39
65738;BMP280;52478;51.844;6.582;2023-06-22T03:22:20;101561.81;;;27.38
65738;BMP280;52478;51.844;6.582;2023-06-22T03:24:46;101549.78;;;27.37
65738;BMP280;52478;51.844;6.582;2023-06-22T03:27:14;101555.41;;;27.37
65738;BMP280;52478;51.844;6.582;2023-06-22T03:29:41;101545.50;;;27.36
65738;BMP280;52478;51.844;6.582;2023-06-22T03:32:07;101545.16;;;27.40
65738;BMP280;52478;51.844;6.582;2023-06-22T03:34:34;101548.69;;;27.40
65738;BMP280;52478;51.844;6.582;2023-06-22T03:37:02;101549.78;;;27.37
65738;BMP280;52478;51.844;6.582;2023-06-22T03:39:29;101549.25;;;27.39
65738;BMP280;52478;51.844;6.582;2023-06-22T03:41:55;101545.25;;;27.34
65738;BMP280;52478;51.844;6.582;2023-06-22T03:44:23;101541.19;;;27.35
65738;BMP280;52478;51.844;6.582;2023-06-22T03:46:49;101534.00;;;27.34
65738;BMP280;52478;51.844;6.582;2023-06-22T03:49:16;101544.56;;;27.34
65738;BMP280;52478;51.844;6.582;2023-06-22T03:51:42;101538.69;;;27.32
65738;BMP280;52478;51.844;6.582;2023-06-22T03:54:09;101532.53;;;27.33
65738;BMP280;52478;51.844;6.582;2023-06-22T03:56:35;101530.81;;;27.30
65738;BMP280;52478;51.844;6.582;2023-06-22T03:59:02;101528.78;;;27.31
65738;BMP280;52478;51.844;6.582;2023-06-22T04:01:30;101522.38;;;27.30
65738;BMP280;52478;51.844;6.582;2023-06-22T04:03:56;101536.06;;;27.26
65738;BMP280;52478;51.844;6.582;2023-06-22T04:06:23;101535.13;;;27.31
65738;BMP280;52478;51.844;6.582;2023-06-22T04:08:49;101529.50;;;27.31
65738;BMP280;52478;51.844;6.582;2023-06-22T04:11:16;101533.31;;;27.34
65738;BMP280;52478;51.844;6.582;2023-06-22T04:13:42;101530.50;;;27.34
65738;BMP280;52478;51.844;6.582;2023-06-22T04:16:09;101526.91;;;27.33
65738;BMP280;52478;51.844;6.582;2023-06-22T04:18:37;101535.34;;;27.33
65738;BMP280;52478;51.844;6.582;2023-06-22T04:21:04;101539.63;;;27.34
65738;BMP280;52478;51.844;6.582;2023-06-22T04:23:30;101539.63;;;27.34
65738;BMP280;52478;51.844;6.582;2023-06-22T04:25:57;101541.19;;;27.35
65738;BMP280;52478;51.844;6.582;2023-06-22T04:28:23;101533.13;;;27.39
65738;BMP280;52478;51.844;6.582;2023-06-22T04:30:50;101538.19;;;27.41
65738;BMP280;52478;51.844;6.582;2023-06-22T04:33:16;101527.72;;;27.41
65738;BMP280;52478;51.844;6.582;2023-06-22T04:35:46;101525.06;;;27.43
65738;BMP280;52478;51.844;6.582;2023-06-22T04:38:12;101540.25;;;27.40
65738;BMP280;52478;51.844;6.582;2023-06-22T04:40:39;101534.84;;;27.42
65738;BMP280;52478;51.844;6.582;2023-06-22T04:43:05;101535.72;;;27.37
65738;BMP280;52478;51.844;6.582;2023-06-22T04:45:32;101536.50;;;27.38
65738;BMP280;52478;51.844;6.582;2023-06-22T04:48:00;101540.06;;;27.38
65738;BMP280;52478;51.844;6.582;2023-06-22T04:50:27;101540.06;;;27.38
65738;BMP280;52478;51.844;6.582;2023-06-22T04:52:55;101526.41;;;27.42
65738;BMP280;52478;51.844;6.582;2023-06-22T04:55:21;101528.13;;;27.45
65738;BMP280;52478;51.844;6.582;2023-06-22T04:57:48;101527.00;;;27.48
65738;BMP280;52478;51.844;6.582;2023-06-22T05:00:15;101525.91;;;27.51
65738;BMP280;52478;51.844;6.582;2023-06-22T05:02:43;101528.88;;;27.53
65738;BMP280;52478;51.844;6.582;2023-06-22T05:05:11;101528.00;;;27.58
65738;BMP280;52478;51.844;6.582;2023-06-22T05:07:39;101529.50;;;27.59
65738;BMP280;52478;51.844;6.582;2023-06-22T05:10:10;101526.88;;;27.61
65738;BMP280;52478;51.844;6.582;2023-06-22T05:12:37;101525.56;;;27.62
65738;BMP280;52478;51.844;6.582;2023-06-22T05:15:05;101530.31;;;27.67
65738;BMP280;52478;51.844;6.582;2023-06-22T05:17:32;101533.31;;;27.69
65738;BMP280;52478;51.844;6.582;2023-06-22T05:19:58;101530.91;;;27.73
65738;BMP280;52478;51.844;6.582;2023-06-22T05:22:25;101534.41;;;27.73
65738;BMP280;52478;51.844;6.582;2023-06-22T05:24:51;101536.53;;;27.73
65738;BMP280;52478;51.844;6.582;2023-06-22T05:27:19;101532.19;;;27.72
65738;BMP280;52478;51.844;6.582;2023-06-22T05:29:46;101521.47;;;27.71
65738;BMP280;52478;51.844;6.582;2023-06-22T05:32:13;101522.22;;;27.71
65738;BMP280;52478;51.844;6.582;2023-06-22T05:34:39;101520.34;;;27.66
65738;BMP280;52478;51.844;6.582;2023-06-22T05:37:06;101517.72;;;27.68
65738;BMP280;52478;51.844;6.582;2023-06-22T05:39:34;101517.34;;;27.64
65738;BMP280;52478;51.844;6.582;2023-06-22T05:42:03;101524.09;;;27.69
65738;BMP280;52478;51.844;6.582;2023-06-22T05:44:31;101526.72;;;27.67
65738;BMP280;52478;51.844;6.582;2023-06-22T05:46:58;101524.84;;;27.69
65738;BMP280;52478;51.844;6.582;2023-06-22T05:49:25;101526.38;;;27.70
65738;BMP280;52478;51.844;6.582;2023-06-22T05:51:55;101532.19;;;27.72
65738;BMP280;52478;51.844;6.582;2023-06-22T05:54:22;101538.00;;;27.74
65738;BMP280;52478;51.844;6.582;2023-06-22T05:56:48;101539.50;;;27.75
65738;BMP280;52478;51.844;6.582;2023-06-22T05:59:15;101536.13;;;27.76
65738;BMP280;52478;51.844;6.582;2023-06-22T06:01:43;101536.56;;;27.53
65738;BMP280;52478;51.844;6.582;2023-06-22T06:04:09;101539.25;;;27.30
65738;BMP280;52478;51.844;6.582;2023-06-22T06:06:36;101547.38;;;27.13
65738;BMP280;52478;51.844;6.582;2023-06-22T06:09:03;101549.91;;;27.04
65738;BMP280;52478;51.844;6.582;2023-06-22T06:11:30;101546.50;;;26.98
65738;BMP280;52478;51.844;6.582;2023-06-22T06:13:56;101549.38;;;26.85
65738;BMP280;52478;51.844;6.582;2023-06-22T06:16:23;101534.53;;;26.77
65738;BMP280;52478;51.844;6.582;2023-06-22T06:18:51;101533.16;;;26.71
65738;BMP280;52478;51.844;6.582;2023-06-22T06:21:19;101538.34;;;26.67
65738;BMP280;52478;51.844;6.582;2023-06-22T06:23:46;101533.06;;;26.63
65738;BMP280;52478;51.844;6.582;2023-06-22T06:26:13;101534.94;;;26.61
65738;BMP280;52478;51.844;6.582;2023-06-22T06:28:41;101526.63;;;26.55
65738;BMP280;52478;51.844;6.582;2023-06-22T06:31:08;101526.16;;;26.64
65738;BMP280;52478;51.844;6.582;2023-06-22T06:33:34;101532.50;;;26.78
65738;BMP280;52478;51.844;6.582;2023-06-22T06:36:02;101524.00;;;26.91
65738;BMP280;52478;51.844;6.582;2023-06-22T06:38:29;101524.78;;;26.98
65738;BMP280;52478;51.844;6.582;2023-06-22T06:40:56;101522.59;;;27.04
65738;BMP280;52478;51.844;6.582;2023-06-22T06:43:22;101527.50;;;27.11
65738;BMP280;52478;51.844;6.582;2023-06-22T06:45:49;101522.81;;;27.14
65738;BMP280;52478;51.844;6.582;2023-06-22T06:48:16;101527.53;;;27.19
65738;BMP280;52478;51.844;6.582;2023-06-22T06:50:43;101532.84;;;27.22
65738;BMP280;52478;51.844;6.582;2023-06-22T06:53:11;101530.22;;;27.24
65738;BMP280;52478;51.844;6.582;2023-06-22T06:55:37;101523.50;;;27.27
65738;BMP280;52478;51.844;6.582;2023-06-22T06:58:04;101521.66;;;27.30
65738;BMP280;52478;51.844;6.582;2023-06-22T07:00:33;101525.19;;;27.30
65738;BMP280;52478;51.844;6.582;2023-06-22T07:03:01;101524.09;;;27.33
65738;BMP280;52478;51.844;6.582;2023-06-22T07:05:27;101519.41;;;27.36
65738;BMP280;52478;51.844;6.582;2023-06-22T07:07:54;101517.56;;;27.38
65738;BMP280;52478;51.844;6.582;2023-06-22T07:10:21;101518.31;;;27.39
65738;BMP280;52478;51.844;6.582;2023-06-22T07:12:48;101515.69;;;27.41
65738;BMP280;52478;51.844;6.582;2023-06-22T07:15:14;101517.97;;;27.42
65738;BMP280;52478;51.844;6.582;2023-06-22T07:17:41;101519.44;;;27.43
65738;BMP280;52478;51.844;6.582;2023-06-22T07:20:08;101510.47;;;27.45
65738;BMP280;52478;51.844;6.582;2023-06-22T07:22:37;101522.50;;;27.45
65738;BMP280;52478;51.844;6.582;2023-06-22T07:25:04;101514.22;;;27.47
65738;BMP280;52478;51.844;6.582;2023-06-22T07:27:36;101510.47;;;27.45
65738;BMP280;52478;51.844;6.582;2023-06-22T07:30:04;101513.13;;;27.50
65738;BMP280;52478;51.844;6.582;2023-06-22T07:32:31;101509.78;;;27.52
65738;BMP280;52478;51.844;6.582;2023-06-22T07:34:57;101510.50;;;27.52
65738;BMP280;52478;51.844;6.582;2023-06-22T07:37:24;101512.00;;;27.53
65738;BMP280;52478;51.844;6.582;2023-06-22T07:39:52;101505.09;;;27.54
65738;BMP280;52478;51.844;6.582;2023-06-22T07:42:23;101510.72;;;27.54
65738;BMP280;52478;51.844;6.582;2023-06-22T07:44:51;101512.41;;;27.57
65738;BMP280;52478;51.844;6.582;2023-06-22T07:47:17;101501.16;;;27.57
65738;BMP280;52478;51.844;6.582;2023-06-22T07:49:44;101506.78;;;27.57
65738;BMP280;52478;51.844;6.582;2023-06-22T07:52:11;101511.31;;;27.60
65738;BMP280;52478;51.844;6.582;2023-06-22T07:54:37;101508.50;;;27.60
65738;BMP280;52478;51.844;6.582;2023-06-22T07:57:04;101503.63;;;27.61
65738;BMP280;52478;51.844;6.582;2023-06-22T07:59:31;101507.19;;;27.61
65738;BMP280;52478;51.844;6.582;2023-06-22T08:01:59;101497.41;;;27.62
65738;BMP280;52478;51.844;6.582;2023-06-22T08:04:25;101486.16;;;27.62
65738;BMP280;52478;51.844;6.582;2023-06-22T08:06:52;101476.44;;;27.63
65738;BMP280;52478;51.844;6.582;2023-06-22T08:09:19;101483.59;;;27.64
65738;BMP280;52478;51.844;6.582;2023-06-22T08:11:45;101478.66;;;27.65
65738;BMP280;52478;51.844;6.582;2023-06-22T08:14:13;101481.47;;;27.65
65738;BMP280;52478;51.844;6.582;2023-06-22T08:16:40;101478.13;;;27.66
65738;BMP280;52478;51.844;6.582;2023-06-22T08:19:08;101486.56;;;27.66
65738;BMP280;52478;51.844;6.582;2023-06-22T08:21:35;101486.78;;;27.68
65738;BMP280;52478;51.844;6.582;2023-06-22T08:24:03;101474.97;;;27.70
65738;BMP280;52478;51.844;6.582;2023-06-22T08:26:29;101470.09;;;27.70
65738;BMP280;52478;51.844;6.582;2023-06-22T08:28:55;101451.34;;;27.73
65738;BMP280;52478;51.844;6.582;2023-06-22T08:31:22;101446.47;;;27.73
65738;BMP280;52478;51.844;6.582;2023-06-22T08:33:48;101441.03;;;27.75
65738;BMP280;52478;51.844;6.582;2023-06-22T08:36:16;101445.38;;;27.76
65738;BMP280;52478;51.844;6.582;2023-06-22T08:38:43;101439.16;;;27.77
65738;BMP280;52478;51.844;6.582;2023-06-22T08:41:09;101432.25;;;27.78
65738;BMP280;52478;51.844;6.582;2023-06-22T08:43:36;101431.66;;;27.80
65738;BMP280;52478;51.844;6.582;2023-06-22T08:46:02;101431.09;;;27.81
65738;BMP280;52478;51.844;6.582;2023-06-22T08:48:29;101425.47;;;27.81
65738;BMP280;52478;51.844;6.582;2023-06-22T08:50:55;101420.63;;;27.82
65738;BMP280;52478;51.844;6.582;2023-06-22T08:53:23;101423.03;;;27.85
65738;BMP280;52478;51.844;6.582;2023-06-22T08:55:49;101411.03;;;27.85
65738;BMP280;52478;51.844;6.582;2023-06-22T08:58:16;101409.94;;;27.88
65738;BMP280;52478;51.844;6.582;2023-06-22T09:00:45;101406.38;;;27.87
65738;BMP280;52478;51.844;6.582;2023-06-22T09:03:11;101404.09;;;27.86
65738;BMP280;52478;51.844;6.582;2023-06-22T09:05:38;101401.28;;;27.86
65738;BMP280;52478;51.844;6.582;2023-06-22T09:08:04;101394.34;;;27.87
65738;BMP280;52478;51.844;6.582;2023-06-22T09:10:32;101395.13;;;27.87
65738;BMP280;52478;51.844;6.582;2023-06-22T09:12:59;101394.34;;;27.87
65738;BMP280;52478;51.844;6.582;2023-06-22T09:15:25;101399.97;;;27.87
65738;BMP280;52478;51.844;6.582;2023-06-22T09:17:52;101398.69;;;27.88
65738;BMP280;52478;51.844;6.582;2023-06-22T09:20:19;101395.84;;;27.88
65738;BMP280;52478;51.844;6.582;2023-06-22T09:22:46;101405.03;;;27.88
65738;BMP280;52478;51.844;6.582;2023-06-22T09:25:12;101412.75;;;27.88
65738;BMP280;52478;51.844;6.582;2023-06-22T09:27:40;101414.22;;;27.89
65738;BMP280;52478;51.844;6.582;2023-06-22T09:30:07;101402.22;;;27.88
65738;BMP280;52478;51.844;6.582;2023-06-22T09:32:34;101402.22;;;27.88
65738;BMP280;52478;51.844;6.582;2023-06-22T09:35:03;101408.59;;;27.89
65738;BMP280;52478;51.844;6.582;2023-06-22T09:37:30;101402.97;;;27.89
65738;BMP280;52478;51.844;6.582;2023-06-22T09:39:57;101398.88;;;27.90
65738;BMP280;52478;51.844;6.582;2023-06-22T09:42:23;101390.44;;;27.90
65738;BMP280;52478;51.844;6.582;2023-06-22T09:44:51;101376.34;;;27.90
65738;BMP280;52478;51.844;6.582;2023-06-22T09:47:18;101375.03;;;27.91
65738;BMP280;52478;51.844;6.582;2023-06-22T09:49:44;101378.56;;;27.91
65738;BMP280;52478;51.844;6.582;2023-06-22T09:52:10;101376.53;;;27.92
65738;BMP280;52478;51.844;6.582;2023-06-22T09:54:37;101384.97;;;27.92
65738;BMP280;52478;51.844;6.582;2023-06-22T09:57:04;101385.72;;;27.92
65738;BMP280;52478;51.844;6.582;2023-06-22T09:59:30;101393.41;;;27.92
65738;BMP280;52478;51.844;6.582;2023-06-22T10:01:58;101394.91;;;27.93
65738;BMP280;52478;51.844;6.582;2023-06-22T10:04:25;101387.97;;;27.94
65738;BMP280;52478;51.844;6.582;2023-06-22T10:06:51;101386.47;;;27.93
65738;BMP280;52478;51.844;6.582;2023-06-22T10:09:18;101385.16;;;27.94
65738;BMP280;52478;51.844;6.582;2023-06-22T10:11:44;101387.97;;;27.94
65738;BMP280;52478;51.844;6.582;2023-06-22T10:14:11;101387.97;;;27.94
65738;BMP280;52478;51.844;6.582;2023-06-22T10:16:37;101387.97;;;27.94
65738;BMP280;52478;51.844;6.582;2023-06-22T10:19:05;101388.72;;;27.94
65738;BMP280;52478;51.844;6.582;2023-06-22T10:21:31;101383.09;;;27.94
65738;BMP280;52478;51.844;6.582;2023-06-22T10:23:58;101385.16;;;27.94
65738;BMP280;52478;51.844;6.582;2023-06-22T10:26:30;101376.72;;;27.94
65738;BMP280;52478;51.844;6.582;2023-06-22T10:28:57;101372.59;;;27.95
65738;BMP280;52478;51.844;6.582;2023-06-22T10:31:23;101374.66;;;27.94
65738;BMP280;52478;51.844;6.582;2023-06-22T10:33:50;101380.84;;;27.93
65738;BMP280;52478;51.844;6.582;2023-06-22T10:36:18;101379.53;;;27.94
65738;BMP280;52478;51.844;6.582;2023-06-22T10:38:44;101371.09;;;27.94
65738;BMP280;52478;51.844;6.582;2023-06-22T10:41:12;101360.56;;;27.94
65738;BMP280;52478;51.844;6.582;2023-06-22T10:43:38;101355.72;;;27.95
65738;BMP280;52478;51.844;6.582;2023-06-22T10:46:06;101350.09;;;27.95
65738;BMP280;52478;51.844;6.582;2023-06-22T10:48:33;101341.63;;;27.95
65738;BMP280;52478;51.844;6.582;2023-06-22T10:50:59;101341.44;;;27.93
65738;BMP280;52478;51.844;6.582;2023-06-22T10:53:27;101333.94;;;27.95
65738;BMP280;52478;51.844;6.582;2023-06-22T10:55:53;101335.44;;;27.96
65738;BMP280;52478;51.844;6.582;2023-06-22T10:58:20;101338.81;;;27.95
65738;BMP280;52478;51.844;6.582;2023-06-22T11:00:46;101341.84;;;27.97
65738;BMP280;52478;51.844;6.582;2023-06-22T11:03:13;101341.84;;;27.97
65738;BMP280;52478;51.844;6.582;2023-06-22T11:05:40;101335.44;;;27.96
65738;BMP280;52478;51.844;6.582;2023-06-22T11:08:07;101330.56;;;27.97
65738;BMP280;52478;51.844;6.582;2023-06-22T11:10:35;101330.56;;;27.97
65738;BMP280;52478;51.844;6.582;2023-06-22T11:13:01;101321.38;;;27.96
65738;BMP280;52478;51.844;6.582;2023-06-22T11:15:29;101317.81;;;27.96
65738;BMP280;52478;51.844;6.582;2023-06-22T11:17:56;101317.81;;;27.96
65738;BMP280;52478;51.844;6.582;2023-06-22T11:20:22;101320.63;;;27.96
65738;BMP280;52478;51.844;6.582;2023-06-22T11:22:48;101323.44;;;27.96
65738;BMP280;52478;51.844;6.582;2023-06-22T11:25:15;101334.13;;;27.97
65738;BMP280;52478;51.844;6.582;2023-06-22T11:27:43;101327.75;;;27.97
65738;BMP280;52478;51.844;6.582;2023-06-22T11:30:10;101336.94;;;27.97
65738;BMP280;52478;51.844;6.582;2023-06-22T11:32:36;101333.19;;;27.95
65738;BMP280;52478;51.844;6.582;2023-06-22T11:35:03;101338.06;;;27.94
65738;BMP280;52478;51.844;6.582;2023-06-22T11:37:29;101328.31;;;27.95
65738;BMP280;52478;51.844;6.582;2023-06-22T11:39:56;101329.06;;;27.96
65738;BMP280;52478;51.844;6.582;2023-06-22T11:42:23;101331.88;;;27.96
65738;BMP280;52478;51.844;6.582;2023-06-22T11:44:51;101319.84;;;27.95
65738;BMP280;52478;51.844;6.582;2023-06-22T11:47:18;101312.19;;;27.96
65738;BMP280;52478;51.844;6.582;2023-06-22T11:49:44;101312.19;;;27.96
65738;BMP280;52478;51.844;6.582;2023-06-22T11:52:11;101299.63;;;27.97
65738;BMP280;52478;51.844;6.582;2023-06-22T11:54:38;101300.34;;;27.97
65738;BMP280;52478;51.844;6.582;2023-06-22T11:57:04;101290.41;;;27.96
65738;BMP280;52478;51.844;6.582;2023-06-22T11:59:31;101291.16;;;27.97
65738;BMP280;52478;51.844;6.582;2023-06-22T12:01:59;101282.53;;;27.95
65738;BMP280;52478;51.844;6.582;2023-06-22T12:04:25;101289.66;;;27.96
65738;BMP280;52478;51.844;6.582;2023-06-22T12:06:52;101300.91;;;27.96
65738;BMP280;52478;51.844;6.582;2023-06-22T12:09:18;101312.19;;;27.96
65738;BMP280;52478;51.844;6.582;2023-06-22T12:11:45;101317.81;;;27.96
65738;BMP280;52478;51.844;6.582;2023-06-22T12:14:12;101327.75;;;27.97
65738;BMP280;52478;51.844;6.582;2023-06-22T12:16:38;101334.69;;;27.96
65738;BMP280;52478;51.844;6.582;2023-06-22T12:19:06;101341.06;;;27.96
65738;BMP280;52478;51.844;6.582;2023-06-22T12:21:32;101341.06;;;27.96
65738;BMP280;52478;51.844;6.582;2023-06-22T12:23:59;101331.88;;;27.96
65738;BMP280;52478;51.844;6.582;2023-06-22T12:26:25;101323.44;;;27.96
65738;BMP280;52478;51.844;6.582;2023-06-22T12:28:52;101318.53;;;27.96
65738;BMP280;52478;51.844;6.582;2023-06-22T12:31:18;101308.06;;;27.97
65738;BMP280;52478;51.844;6.582;2023-06-22T12:33:45;101310.88;;;27.97
65738;BMP280;52478;51.844;6.582;2023-06-22T12:36:13;101313.69;;;27.97
65738;BMP280;52478;51.844;6.582;2023-06-22T12:38:39;101307.13;;;27.87
65738;BMP280;52478;51.844;6.582;2023-06-22T12:41:06;101310.47;;;27.78
65738;BMP280;52478;51.844;6.582;2023-06-22T12:43:32;101307.28;;;27.74
65738;BMP280;52478;51.844;6.582;2023-06-22T12:45:59;101298.84;;;27.74
65738;BMP280;52478;51.844;6.582;2023-06-22T12:48:26;101286.66;;;27.72
65738;BMP280;52478;51.844;6.582;2023-06-22T12:50:52;101276.16;;;27.72
65738;BMP280;52478;51.844;6.582;2023-06-22T12:53:20;101261.31;;;27.72
65738;BMP280;52478;51.844;6.582;2023-06-22T12:55:47;101256.63;;;27.74
65738;BMP280;52478;51.844;6.582;2023-06-22T12:58:14;101264.31;;;27.73
65738;BMP280;52478;51.844;6.582;2023-06-22T13:00:40;101264.91;;;27.72
65738;BMP280;52478;51.844;6.582;2023-06-22T13:03:07;101272.75;;;27.73
65738;BMP280;52478;51.844;6.582;2023-06-22T13:05:33;101262.25;;;27.74
65738;BMP280;52478;51.844;6.582;2023-06-22T13:08:01;101258.91;;;27.75
65738;BMP280;52478;51.844;6.582;2023-06-22T13:10:29;101252.34;;;27.73
65738;BMP280;52478;51.844;6.582;2023-06-22T13:12:55;101242.78;;;27.76
65738;BMP280;52478;51.844;6.582;2023-06-22T13:15:26;101235.06;;;27.69
65738;BMP280;52478;51.844;6.582;2023-06-22T13:17:53;101240.53;;;27.67
65738;BMP280;52478;51.844;6.582;2023-06-22T13:20:20;101239.38;;;27.63
65738;BMP280;52478;51.844;6.582;2023-06-22T13:22:46;101237.13;;;27.61
65738;BMP280;52478;51.844;6.582;2023-06-22T13:25:13;101237.72;;;27.67
65738;BMP280;52478;51.844;6.582;2023-06-22T13:27:45;101222.34;;;27.61
65738;BMP280;52478;51.844;6.582;2023-06-22T13:30:12;101209.75;;;27.62
65738;BMP280;52478;51.844;6.582;2023-06-22T13:32:39;101198.13;;;27.65
65738;BMP280;52478;51.844;6.582;2023-06-22T13:35:07;101195.13;;;27.71
65738;BMP280;52478;51.844;6.582;2023-06-22T13:37:34;101184.59;;;27.71
65738;BMP280;52478;51.844;6.582;2023-06-22T13:40:00;101180.84;;;27.69
65738;BMP280;52478;51.844;6.582;2023-06-22T13:42:30;101173.03;;;27.67
65738;BMP280;52478;51.844;6.582;2023-06-22T13:44:58;101185.75;;;27.68
65738;BMP280;52478;51.844;6.582;2023-06-22T13:47:24;101190.59;;;27.68
65738;BMP280;52478;51.844;6.582;2023-06-22T13:49:50;101195.53;;;27.67
65738;BMP280;52478;51.844;6.582;2023-06-22T13:52:17;101187.97;;;27.62
65738;BMP280;52478;51.844;6.582;2023-06-22T13:54:43;101196.63;;;27.57
65738;BMP280;52478;51.844;6.582;2023-06-22T13:57:10;101196.09;;;27.58